createdAt,value
2023-03-06T00:05:42.568Z,0
2023-03-06T00:12:05.404Z,0
2023-03-06T00:18:25.368Z,0
2023-03-06T00:24:48.418Z,0
2023-03-06T00:31:08.456Z,0
2023-03-06T00:37:31.367Z,0
2023-03-06T00:43:51.372Z,0
2023-03-06T00:50:14.584Z,0
2023-03-06T00:56:34.502Z,0
2023-03-06T01:02:57.515Z,0
2023-03-06T01:09:17.536Z,0
2023-03-06T01:15:40.522Z,0
2023-03-06T01:22:00.333Z,0
2023-03-06T01:28:23.371Z,0
2023-03-06T01:34:43.373Z,0
2023-03-06T01:41:06.431Z,0
2023-03-06T01:47:26.432Z,0
2023-03-06T01:53:49.474Z,0
2023-03-06T02:00:09.416Z,0
2023-03-06T02:06:32.386Z,0
2023-03-06T02:12:52.358Z,0
2023-03-06T02:19:15.370Z,0
2023-03-06T02:25:35.339Z,0
2023-03-06T02:31:58.412Z,0
2023-03-06T02:38:18.342Z,0
2023-03-06T02:44:41.479Z,0
2023-03-06T02:51:01.378Z,0
2023-03-06T02:57:24.359Z,0
2023-03-06T03:03:44.483Z,0
2023-03-06T03:10:07.482Z,0
2023-03-06T03:16:27.556Z,0
2023-03-06T03:22:50.418Z,0
2023-03-06T03:29:10.368Z,0
2023-03-06T03:35:33.434Z,0
2023-03-06T03:41:53.421Z,0
2023-03-06T03:48:16.424Z,0
2023-03-06T03:54:36.354Z,0
2023-03-06T04:00:59.404Z,0
2023-03-06T04:07:19.368Z,0
2023-03-06T04:23:47.334Z,0
2023-03-06T04:30:07.344Z,0
2023-03-06T04:36:30.508Z,0
2023-03-06T04:42:50.466Z,0
2023-03-06T04:49:13.383Z,0
2023-03-06T04:55:33.344Z,0
2023-03-06T05:01:56.564Z,0
2023-03-06T05:08:16.385Z,0
2023-03-06T05:14:39.404Z,0
2023-03-06T05:20:59.485Z,0
2023-03-06T05:27:22.419Z,0
2023-03-06T05:33:42.364Z,0
2023-03-06T05:40:05.369Z,0
2023-03-06T05:46:25.333Z,1
2023-03-06T05:52:48.509Z,1
2023-03-06T05:59:08.431Z,3
2023-03-06T06:05:31.659Z,5
2023-03-06T06:11:51.479Z,8
2023-03-06T06:18:14.523Z,14
2023-03-06T06:24:34.465Z,32
2023-03-06T06:30:57.484Z,30
2023-03-06T06:37:17.498Z,32
2023-03-06T06:43:40.456Z,42
2023-03-06T06:50:00.405Z,37
2023-03-06T06:56:23.539Z,111
2023-03-06T07:02:43.514Z,194
2023-03-06T07:09:06.462Z,183
2023-03-06T07:15:26.366Z,338
2023-03-06T07:21:49.416Z,381
2023-03-06T07:28:09.525Z,514
2023-03-06T07:34:32.461Z,573
2023-03-06T07:40:52.438Z,509
2023-03-06T07:47:15.538Z,488
2023-03-06T07:53:35.506Z,528
2023-03-06T07:59:58.485Z,371
2023-03-06T08:06:18.352Z,359
2023-03-06T08:12:41.498Z,618
2023-03-06T08:19:01.484Z,994
2023-03-06T08:25:24.431Z,1855
2023-03-06T08:31:44.587Z,1312
2023-03-06T08:38:07.446Z,1364
2023-03-06T08:44:27.338Z,912
2023-03-06T08:50:50.413Z,970
2023-03-06T08:57:10.357Z,920
2023-03-06T09:03:33.563Z,1299
2023-03-06T09:09:53.514Z,1018
2023-03-06T09:27:22.288Z,1121
2023-03-06T09:33:42.363Z,1671
2023-03-06T09:40:05.407Z,1018
2023-03-06T09:46:25.531Z,1671
2023-03-06T09:52:48.441Z,1750
2023-03-06T09:59:08.561Z,1672
2023-03-06T10:05:31.429Z,1822
2023-03-06T10:11:51.333Z,1493
2023-03-06T10:18:14.472Z,1150
2023-03-06T10:24:34.405Z,1858
2023-03-06T10:30:57.434Z,2557
2023-03-06T10:37:17.674Z,2189
2023-03-06T10:43:40.798Z,1935
2023-03-06T10:50:00.582Z,1978
2023-03-06T10:56:23.436Z,1270
2023-03-06T11:02:43.498Z,1275
2023-03-06T11:09:06.342Z,1528
2023-03-06T11:15:26.526Z,1395
2023-03-06T11:21:49.506Z,3053
2023-03-06T11:28:09.411Z,3029
2023-03-06T11:34:32.426Z,2153
2023-03-06T11:40:52.399Z,2688
2023-03-06T11:47:15.561Z,1784
2023-03-06T11:53:35.387Z,1459
2023-03-06T11:59:58.440Z,1525
2023-03-06T12:06:18.366Z,1537
2023-03-06T12:12:41.352Z,2571
2023-03-06T12:19:01.426Z,1776
2023-03-06T12:25:24.372Z,1462
2023-03-06T12:31:44.377Z,1430
2023-03-06T12:38:07.419Z,1168
2023-03-06T12:44:27.353Z,713
2023-03-06T12:50:50.632Z,691
2023-03-06T12:57:10.496Z,1259
2023-03-06T13:03:33.437Z,1673
2023-03-06T13:09:53.402Z,2304
2023-03-06T13:16:16.488Z,1898
2023-03-06T13:22:36.522Z,1594
2023-03-06T13:28:59.370Z,1378
2023-03-06T13:35:19.431Z,1679
2023-03-06T13:41:42.522Z,1889
2023-03-06T13:48:24.793Z,1200
2023-03-06T13:54:25.496Z,1289
2023-03-06T14:00:45.375Z,1515
2023-03-06T14:07:08.364Z,1952
2023-03-06T14:13:35.029Z,1377
2023-03-06T14:19:51.425Z,1341
2023-03-06T14:42:57.888Z,690
2023-03-06T14:49:17.332Z,1033
2023-03-06T14:55:40.443Z,503
2023-03-06T15:02:00.503Z,464
2023-03-06T15:08:23.676Z,564
2023-03-06T15:14:43.686Z,528
2023-03-06T15:21:06.425Z,719
2023-03-06T15:27:26.421Z,575
2023-03-06T15:33:49.355Z,492
2023-03-06T15:40:09.546Z,487
2023-03-06T15:46:32.438Z,1035
2023-03-06T15:52:52.422Z,1560
2023-03-06T15:59:15.766Z,1309
2023-03-06T16:05:35.431Z,1038
2023-03-06T16:11:58.413Z,1007
2023-03-06T16:18:18.399Z,1263
2023-03-06T16:24:41.352Z,1418
2023-03-06T16:31:01.575Z,542
2023-03-06T16:37:24.612Z,388
2023-03-06T16:43:44.425Z,483
2023-03-06T16:50:07.637Z,446
2023-03-06T16:56:27.501Z,295
2023-03-06T17:02:50.415Z,141
2023-03-06T17:09:10.386Z,84
2023-03-06T17:15:33.652Z,56
2023-03-06T17:21:53.368Z,30
2023-03-06T17:28:16.475Z,16
2023-03-06T17:34:36.398Z,6
2023-03-06T17:40:59.395Z,2
2023-03-06T17:47:19.330Z,1
2023-03-06T17:53:42.431Z,0
2023-03-06T18:00:02.370Z,0
2023-03-06T18:06:25.380Z,0
2023-03-06T18:12:45.479Z,0
2023-03-06T18:19:08.316Z,0
2023-03-06T18:25:28.333Z,0
2023-03-06T18:31:51.474Z,0
2023-03-06T18:38:11.335Z,0
2023-03-06T18:44:34.353Z,0
2023-03-06T18:50:54.353Z,0
2023-03-06T18:57:17.317Z,0
2023-03-06T19:03:37.431Z,0
2023-03-06T19:10:00.369Z,0
2023-03-06T19:16:20.464Z,0
2023-03-06T19:22:43.350Z,0
2023-03-06T19:29:03.398Z,0
2023-03-06T19:45:32.380Z,0
2023-03-06T19:51:52.325Z,0
2023-03-06T19:58:15.332Z,0
2023-03-06T20:04:35.446Z,0
2023-03-06T20:10:58.344Z,0
2023-03-06T20:17:18.508Z,0
2023-03-06T20:23:41.428Z,0
2023-03-06T20:30:01.425Z,0
2023-03-06T20:36:24.485Z,0
2023-03-06T20:42:44.324Z,0
2023-03-06T20:49:07.364Z,0
2023-03-06T20:55:27.305Z,0
2023-03-06T21:01:50.468Z,0
2023-03-06T21:08:10.474Z,0
2023-03-06T21:14:33.412Z,0
2023-03-06T21:20:53.508Z,0
2023-03-06T21:27:16.460Z,0
2023-03-06T21:33:36.337Z,0
2023-03-06T21:39:59.554Z,0
2023-03-06T21:46:19.506Z,0
2023-03-06T21:52:42.378Z,0
2023-03-06T21:59:02.565Z,0
2023-03-06T22:05:25.382Z,0
2023-03-06T22:11:45.499Z,0
2023-03-06T22:18:08.462Z,0
2023-03-06T22:24:28.535Z,0
2023-03-06T22:30:51.364Z,0
2023-03-06T22:37:11.458Z,0
2023-03-06T22:43:34.458Z,0
2023-03-06T22:49:54.453Z,0
2023-03-06T22:56:17.368Z,0
2023-03-06T23:20:31.368Z,0
2023-03-06T23:26:51.361Z,0
2023-03-06T23:33:14.356Z,0
2023-03-06T23:39:34.517Z,0
2023-03-06T23:45:57.488Z,0
2023-03-06T23:52:17.443Z,0
2023-03-06T23:58:40.503Z,0
